sensor_id;sensor_type;location;lat;lon;timestamp;pressure;altitude;pressure_sealevel;temperature;humidity
15694;BME280;7947;48.834;9.132;2022-07-18T00:01:20;98926.38;;;18.76;49.81
15694;BME280;7947;48.834;9.132;2022-07-18T00:04:23;98932.44;;;18.73;50.72
15694;BME280;7947;48.834;9.132;2022-07-18T00:07:26;98924.22;;;18.64;50.94
15694;BME280;7947;48.834;9.132;2022-07-18T00:10:29;98930.28;;;18.61;50.86
15694;BME280;7947;48.834;9.132;2022-07-18T00:13:33;98925.75;;;18.57;50.92
15694;BME280;7947;48.834;9.132;2022-07-18T00:16:37;98932.81;;;18.58;51.90
15694;BME280;7947;48.834;9.132;2022-07-18T00:19:40;98935.31;;;18.54;51.60
15694;BME280;7947;48.834;9.132;2022-07-18T00:22:43;98936.84;;;18.47;50.99
15694;BME280;7947;48.834;9.132;2022-07-18T00:25:47;98926.38;;;18.40;51.63
15694;BME280;7947;48.834;9.132;2022-07-18T00:28:55;98933.53;;;18.36;52.27
15694;BME280;7947;48.834;9.132;2022-07-18T00:32:02;98933.34;;;18.33;52.49
15694;BME280;7947;48.834;9.132;2022-07-18T00:35:30;98942.28;;;18.33;52.53
15694;BME280;7947;48.834;9.132;2022-07-18T00:38:37;98925.97;;;18.33;52.26
15694;BME280;7947;48.834;9.132;2022-07-18T00:42:14;98930.91;;;18.31;52.85
15694;BME280;7947;48.834;9.132;2022-07-18T00:45:49;98927.22;;;18.27;53.03
15694;BME280;7947;48.834;9.132;2022-07-18T00:48:57;98921.28;;;18.25;53.02
15694;BME280;7947;48.834;9.132;2022-07-18T00:52:03;98929.34;;;18.17;53.47
15694;BME280;7947;48.834;9.132;2022-07-18T00:55:10;98925.44;;;18.09;53.24
15694;BME280;7947;48.834;9.132;2022-07-18T00:58:18;98922.22;;;18.07;53.69
15694;BME280;7947;48.834;9.132;2022-07-18T01:01:26;98919.13;;;18.00;53.82
15694;BME280;7947;48.834;9.132;2022-07-18T01:04:52;98930.38;;;17.93;52.69
15694;BME280;7947;48.834;9.132;2022-07-18T01:08:00;98926.03;;;17.92;53.55
15694;BME280;7947;48.834;9.132;2022-07-18T01:11:06;98921.53;;;17.88;53.67
15694;BME280;7947;48.834;9.132;2022-07-18T01:14:14;98929.25;;;17.81;53.06
15694;BME280;7947;48.834;9.132;2022-07-18T01:17:23;98924.56;;;17.73;53.96
15694;BME280;7947;48.834;9.132;2022-07-18T01:20:54;98923.66;;;17.77;54.03
15694;BME280;7947;48.834;9.132;2022-07-18T01:24:11;98919.72;;;17.70;53.90
15694;BME280;7947;48.834;9.132;2022-07-18T01:27:19;98920.84;;;17.69;54.48
15694;BME280;7947;48.834;9.132;2022-07-18T01:30:27;98917.91;;;17.65;54.75
15694;BME280;7947;48.834;9.132;2022-07-18T01:33:35;98910.69;;;17.61;55.02
15694;BME280;7947;48.834;9.132;2022-07-18T01:36:47;98915.63;;;17.59;54.22
15694;BME280;7947;48.834;9.132;2022-07-18T01:39:55;98918.00;;;17.60;53.98
15694;BME280;7947;48.834;9.132;2022-07-18T01:43:02;98918.41;;;17.54;54.52
15694;BME280;7947;48.834;9.132;2022-07-18T01:46:09;98926.72;;;17.44;54.82
15694;BME280;7947;48.834;9.132;2022-07-18T01:49:17;98916.56;;;17.36;54.38
15694;BME280;7947;48.834;9.132;2022-07-18T01:52:29;98922.06;;;17.31;54.60
15694;BME280;7947;48.834;9.132;2022-07-18T01:55:37;98921.34;;;17.25;54.37
15694;BME280;7947;48.834;9.132;2022-07-18T01:58:43;98922.78;;;17.23;54.26
15694;BME280;7947;48.834;9.132;2022-07-18T02:01:50;98928.25;;;17.17;54.40
15694;BME280;7947;48.834;9.132;2022-07-18T02:04:56;98927.34;;;17.08;54.31
15694;BME280;7947;48.834;9.132;2022-07-18T02:08:07;98922.22;;;17.07;54.10
15694;BME280;7947;48.834;9.132;2022-07-18T02:11:17;98928.44;;;17.07;54.70
15694;BME280;7947;48.834;9.132;2022-07-18T02:14:23;98929.63;;;17.01;55.01
15694;BME280;7947;48.834;9.132;2022-07-18T02:17:34;98924.59;;;16.95;55.41
15694;BME280;7947;48.834;9.132;2022-07-18T02:20:52;98929.56;;;16.88;55.79
15694;BME280;7947;48.834;9.132;2022-07-18T02:24:00;98934.00;;;16.84;55.29
15694;BME280;7947;48.834;9.132;2022-07-18T02:27:08;98942.50;;;16.77;55.59
15694;BME280;7947;48.834;9.132;2022-07-18T02:30:15;98933.34;;;16.73;56.71
15694;BME280;7947;48.834;9.132;2022-07-18T02:33:18;98932.31;;;16.69;56.84
15694;BME280;7947;48.834;9.132;2022-07-18T02:36:21;98936.41;;;16.67;56.16
15694;BME280;7947;48.834;9.132;2022-07-18T02:39:25;98939.72;;;16.64;56.44
15694;BME280;7947;48.834;9.132;2022-07-18T02:42:28;98930.78;;;16.63;56.25
15694;BME280;7947;48.834;9.132;2022-07-18T02:45:31;98926.47;;;16.62;56.54
15694;BME280;7947;48.834;9.132;2022-07-18T02:48:34;98931.69;;;16.59;56.96
15694;BME280;7947;48.834;9.132;2022-07-18T02:51:37;98939.34;;;16.52;57.06
15694;BME280;7947;48.834;9.132;2022-07-18T02:54:42;98940.50;;;16.46;57.27
15694;BME280;7947;48.834;9.132;2022-07-18T02:57:45;98941.91;;;16.43;57.59
15694;BME280;7947;48.834;9.132;2022-07-18T03:00:48;98937.88;;;16.41;57.73
15694;BME280;7947;48.834;9.132;2022-07-18T03:03:51;98934.34;;;16.40;58.13
15694;BME280;7947;48.834;9.132;2022-07-18T03:06:54;98936.84;;;16.37;58.16
15694;BME280;7947;48.834;9.132;2022-07-18T03:09:58;98935.81;;;16.33;58.71
15694;BME280;7947;48.834;9.132;2022-07-18T03:13:01;98940.41;;;16.32;59.21
15694;BME280;7947;48.834;9.132;2022-07-18T03:16:04;98934.78;;;16.28;59.13
15694;BME280;7947;48.834;9.132;2022-07-18T03:19:07;98935.94;;;16.22;59.73
15694;BME280;7947;48.834;9.132;2022-07-18T03:22:10;98934.13;;;16.18;60.11
15694;BME280;7947;48.834;9.132;2022-07-18T03:25:14;98931.13;;;16.19;59.46
15694;BME280;7947;48.834;9.132;2022-07-18T03:28:17;98942.38;;;16.26;59.61
15694;BME280;7947;48.834;9.132;2022-07-18T03:31:19;98948.75;;;16.17;59.85
15694;BME280;7947;48.834;9.132;2022-07-18T03:34:22;98941.75;;;16.16;59.86
15694;BME280;7947;48.834;9.132;2022-07-18T03:37:25;98937.69;;;16.13;60.28
15694;BME280;7947;48.834;9.132;2022-07-18T03:40:29;98941.25;;;16.09;60.26
15694;BME280;7947;48.834;9.132;2022-07-18T03:43:32;98946.69;;;16.09;60.39
15694;BME280;7947;48.834;9.132;2022-07-18T03:46:34;98941.25;;;16.09;60.97
15694;BME280;7947;48.834;9.132;2022-07-18T03:49:38;98941.56;;;16.07;60.56
15694;BME280;7947;48.834;9.132;2022-07-18T03:52:40;98947.78;;;16.08;60.90
15694;BME280;7947;48.834;9.132;2022-07-18T03:55:45;98942.16;;;16.04;60.82
15694;BME280;7947;48.834;9.132;2022-07-18T03:58:48;98935.72;;;16.00;60.78
15694;BME280;7947;48.834;9.132;2022-07-18T04:01:51;98932.50;;;15.98;61.12
15694;BME280;7947;48.834;9.132;2022-07-18T04:04:54;98943.09;;;15.95;61.59
15694;BME280;7947;48.834;9.132;2022-07-18T04:07:56;98935.53;;;15.92;61.65
15694;BME280;7947;48.834;9.132;2022-07-18T04:11:00;98932.31;;;15.90;61.85
15694;BME280;7947;48.834;9.132;2022-07-18T04:14:03;98935.84;;;15.90;62.15
15694;BME280;7947;48.834;9.132;2022-07-18T04:17:06;98939.56;;;15.94;62.25
15694;BME280;7947;48.834;9.132;2022-07-18T04:20:10;98933.34;;;15.94;62.16
15694;BME280;7947;48.834;9.132;2022-07-18T04:23:13;98933.78;;;16.01;62.93
15694;BME280;7947;48.834;9.132;2022-07-18T04:26:18;98941.13;;;16.00;62.97
15694;BME280;7947;48.834;9.132;2022-07-18T04:29:21;98943.53;;;16.02;63.07
15694;BME280;7947;48.834;9.132;2022-07-18T04:32:23;98937.47;;;16.10;63.66
15694;BME280;7947;48.834;9.132;2022-07-18T04:35:27;98933.38;;;16.12;63.75
15694;BME280;7947;48.834;9.132;2022-07-18T04:38:29;98933.31;;;16.17;64.39
15694;BME280;7947;48.834;9.132;2022-07-18T04:41:37;98931.69;;;16.16;64.89
15694;BME280;7947;48.834;9.132;2022-07-18T04:44:40;98932.66;;;16.25;65.24
15694;BME280;7947;48.834;9.132;2022-07-18T04:47:43;98932.28;;;16.32;65.27
15694;BME280;7947;48.834;9.132;2022-07-18T04:50:46;98935.47;;;16.39;65.27
15694;BME280;7947;48.834;9.132;2022-07-18T04:53:49;98938.28;;;16.48;65.52
15694;BME280;7947;48.834;9.132;2022-07-18T04:56:53;98930.94;;;16.53;65.34
15694;BME280;7947;48.834;9.132;2022-07-18T04:59:56;98933.19;;;16.65;65.30
15694;BME280;7947;48.834;9.132;2022-07-18T05:02:58;98927.25;;;16.81;65.42
15694;BME280;7947;48.834;9.132;2022-07-18T05:06:01;98930.09;;;16.90;64.69
15694;BME280;7947;48.834;9.132;2022-07-18T05:09:04;98932.63;;;17.00;65.14
15694;BME280;7947;48.834;9.132;2022-07-18T05:12:08;98931.38;;;17.11;65.29
15694;BME280;7947;48.834;9.132;2022-07-18T05:15:14;98929.59;;;17.20;64.80
15694;BME280;7947;48.834;9.132;2022-07-18T05:18:17;98919.34;;;17.31;64.75
15694;BME280;7947;48.834;9.132;2022-07-18T05:21:20;98924.78;;;17.44;64.27
15694;BME280;7947;48.834;9.132;2022-07-18T05:24:23;98918.63;;;17.57;63.21
15694;BME280;7947;48.834;9.132;2022-07-18T05:27:27;98919.72;;;17.70;61.21
15694;BME280;7947;48.834;9.132;2022-07-18T05:30:30;98926.16;;;17.87;59.77
15694;BME280;7947;48.834;9.132;2022-07-18T05:33:33;98915.38;;;18.10;58.81
15694;BME280;7947;48.834;9.132;2022-07-18T05:36:37;98929.31;;;18.30;58.90
15694;BME280;7947;48.834;9.132;2022-07-18T05:39:40;98921.84;;;18.49;57.74
15694;BME280;7947;48.834;9.132;2022-07-18T05:42:44;98919.09;;;18.63;57.79
15694;BME280;7947;48.834;9.132;2022-07-18T05:45:56;98927.69;;;18.78;57.74
15694;BME280;7947;48.834;9.132;2022-07-18T05:48:59;98932.44;;;18.95;57.23
15694;BME280;7947;48.834;9.132;2022-07-18T05:52:02;98929.53;;;19.14;56.48
15694;BME280;7947;48.834;9.132;2022-07-18T05:55:06;98932.50;;;19.26;56.06
15694;BME280;7947;48.834;9.132;2022-07-18T05:58:11;98931.63;;;19.39;55.04
15694;BME280;7947;48.834;9.132;2022-07-18T06:01:14;98928.81;;;19.52;54.56
15694;BME280;7947;48.834;9.132;2022-07-18T06:04:21;98928.41;;;19.67;54.13
15694;BME280;7947;48.834;9.132;2022-07-18T06:07:24;98921.09;;;19.85;53.99
15694;BME280;7947;48.834;9.132;2022-07-18T06:10:27;98923.88;;;20.02;52.77
15694;BME280;7947;48.834;9.132;2022-07-18T06:13:31;98920.44;;;20.19;51.38
15694;BME280;7947;48.834;9.132;2022-07-18T06:16:34;98923.78;;;20.33;51.64
15694;BME280;7947;48.834;9.132;2022-07-18T06:19:37;98926.38;;;20.55;52.75
15694;BME280;7947;48.834;9.132;2022-07-18T06:22:40;98922.69;;;20.68;51.72
15694;BME280;7947;48.834;9.132;2022-07-18T06:25:43;98920.09;;;20.89;51.77
15694;BME280;7947;48.834;9.132;2022-07-18T06:28:48;98924.13;;;21.08;50.87
15694;BME280;7947;48.834;9.132;2022-07-18T06:31:50;98930.50;;;21.29;49.59
15694;BME280;7947;48.834;9.132;2022-07-18T06:34:53;98928.22;;;21.48;49.29
15694;BME280;7947;48.834;9.132;2022-07-18T06:37:56;98918.81;;;21.67;49.25
15694;BME280;7947;48.834;9.132;2022-07-18T06:40:58;98913.47;;;21.87;48.29
15694;BME280;7947;48.834;9.132;2022-07-18T06:44:03;98919.16;;;22.03;47.50
15694;BME280;7947;48.834;9.132;2022-07-18T06:47:06;98916.94;;;22.25;47.10
15694;BME280;7947;48.834;9.132;2022-07-18T06:50:10;98913.75;;;22.44;46.04
15694;BME280;7947;48.834;9.132;2022-07-18T06:53:13;98918.47;;;22.64;45.91
15694;BME280;7947;48.834;9.132;2022-07-18T06:56:15;98911.69;;;22.82;46.09
15694;BME280;7947;48.834;9.132;2022-07-18T06:59:20;98904.59;;;23.02;45.02
15694;BME280;7947;48.834;9.132;2022-07-18T07:02:22;98904.41;;;23.19;43.78
15694;BME280;7947;48.834;9.132;2022-07-18T07:05:26;98906.09;;;23.44;44.10
15694;BME280;7947;48.834;9.132;2022-07-18T07:08:28;98894.38;;;23.68;44.02
15694;BME280;7947;48.834;9.132;2022-07-18T07:11:31;98899.91;;;24.04;44.41
15694;BME280;7947;48.834;9.132;2022-07-18T07:14:36;98901.00;;;24.27;41.87
15694;BME280;7947;48.834;9.132;2022-07-18T07:17:39;98893.97;;;24.54;42.15
15694;BME280;7947;48.834;9.132;2022-07-18T07:20:42;98894.69;;;24.78;41.03
15694;BME280;7947;48.834;9.132;2022-07-18T07:23:44;98900.09;;;25.02;40.35
15694;BME280;7947;48.834;9.132;2022-07-18T07:26:48;98899.16;;;25.26;39.31
15694;BME280;7947;48.834;9.132;2022-07-18T07:29:58;98896.38;;;25.54;39.28
15694;BME280;7947;48.834;9.132;2022-07-18T07:33:02;98884.13;;;25.82;37.26
15694;BME280;7947;48.834;9.132;2022-07-18T07:36:05;98888.19;;;26.04;37.00
15694;BME280;7947;48.834;9.132;2022-07-18T07:39:08;98888.78;;;26.29;37.34
15694;BME280;7947;48.834;9.132;2022-07-18T07:42:11;98894.09;;;26.56;37.14
15694;BME280;7947;48.834;9.132;2022-07-18T07:45:16;98892.75;;;26.85;36.98
15694;BME280;7947;48.834;9.132;2022-07-18T07:48:20;98886.88;;;27.06;35.96
15694;BME280;7947;48.834;9.132;2022-07-18T07:51:23;98891.13;;;27.22;33.83
15694;BME280;7947;48.834;9.132;2022-07-18T07:54:28;98879.31;;;27.41;35.06
15694;BME280;7947;48.834;9.132;2022-07-18T07:57:32;98881.56;;;27.58;33.32
15694;BME280;7947;48.834;9.132;2022-07-18T08:00:39;98877.06;;;27.73;31.97
15694;BME280;7947;48.834;9.132;2022-07-18T08:03:43;98871.03;;;27.90;31.22
15694;BME280;7947;48.834;9.132;2022-07-18T08:06:47;98876.56;;;27.90;29.59
15694;BME280;7947;48.834;9.132;2022-07-18T08:09:50;98879.94;;;28.02;30.98
15694;BME280;7947;48.834;9.132;2022-07-18T08:12:53;98876.22;;;28.17;31.05
15694;BME280;7947;48.834;9.132;2022-07-18T08:15:57;98873.19;;;28.26;30.24
15694;BME280;7947;48.834;9.132;2022-07-18T08:19:01;98874.84;;;28.34;30.97
15694;BME280;7947;48.834;9.132;2022-07-18T08:22:04;98871.84;;;28.42;30.15
15694;BME280;7947;48.834;9.132;2022-07-18T08:25:08;98874.81;;;28.57;30.86
15694;BME280;7947;48.834;9.132;2022-07-18T08:28:12;98875.31;;;28.66;30.31
15694;BME280;7947;48.834;9.132;2022-07-18T08:31:16;98860.94;;;28.83;29.56
15694;BME280;7947;48.834;9.132;2022-07-18T08:34:28;98860.31;;;29.00;28.77
15694;BME280;7947;48.834;9.132;2022-07-18T08:37:31;98869.13;;;29.09;27.78
15694;BME280;7947;48.834;9.132;2022-07-18T08:40:36;98871.97;;;29.16;27.74
15694;BME280;7947;48.834;9.132;2022-07-18T08:43:40;98874.47;;;29.28;28.53
15694;BME280;7947;48.834;9.132;2022-07-18T08:46:49;98866.66;;;29.37;28.38
15694;BME280;7947;48.834;9.132;2022-07-18T08:49:52;98863.97;;;29.44;28.55
15694;BME280;7947;48.834;9.132;2022-07-18T08:52:56;98865.16;;;29.47;28.24
15694;BME280;7947;48.834;9.132;2022-07-18T08:56:02;98871.25;;;29.63;27.86
15694;BME280;7947;48.834;9.132;2022-07-18T08:59:05;98870.09;;;29.67;26.66
15694;BME280;7947;48.834;9.132;2022-07-18T09:02:10;98875.31;;;29.72;27.27
15694;BME280;7947;48.834;9.132;2022-07-18T09:05:19;98880.38;;;29.70;27.42
15694;BME280;7947;48.834;9.132;2022-07-18T09:08:37;98873.00;;;29.81;28.86
15694;BME280;7947;48.834;9.132;2022-07-18T09:11:59;98865.19;;;29.94;27.24
15694;BME280;7947;48.834;9.132;2022-07-18T09:15:04;98870.38;;;30.02;25.49
15694;BME280;7947;48.834;9.132;2022-07-18T09:18:09;98864.09;;;30.09;26.04
15694;BME280;7947;48.834;9.132;2022-07-18T09:21:35;98865.38;;;30.25;26.74
15694;BME280;7947;48.834;9.132;2022-07-18T09:24:56;98868.25;;;30.36;27.81
15694;BME280;7947;48.834;9.132;2022-07-18T09:28:00;98871.50;;;30.49;26.82
15694;BME280;7947;48.834;9.132;2022-07-18T09:31:17;98869.97;;;30.69;25.71
15694;BME280;7947;48.834;9.132;2022-07-18T09:34:34;98858.16;;;30.82;25.40
15694;BME280;7947;48.834;9.132;2022-07-18T09:37:38;98862.16;;;30.85;23.67
15694;BME280;7947;48.834;9.132;2022-07-18T09:40:43;98852.69;;;30.89;25.73
15694;BME280;7947;48.834;9.132;2022-07-18T09:43:47;98860.22;;;30.99;24.32
15694;BME280;7947;48.834;9.132;2022-07-18T09:47:02;98855.50;;;31.10;24.28
15694;BME280;7947;48.834;9.132;2022-07-18T09:50:19;98848.00;;;31.29;24.86
15694;BME280;7947;48.834;9.132;2022-07-18T09:53:24;98852.41;;;31.44;24.46
15694;BME280;7947;48.834;9.132;2022-07-18T09:56:36;98846.06;;;31.50;23.77
15694;BME280;7947;48.834;9.132;2022-07-18T09:59:41;98842.53;;;31.57;22.74
15694;BME280;7947;48.834;9.132;2022-07-18T10:02:49;98843.31;;;31.61;23.26
15694;BME280;7947;48.834;9.132;2022-07-18T10:05:56;98838.94;;;31.67;23.69
15694;BME280;7947;48.834;9.132;2022-07-18T10:08:59;98830.63;;;31.74;22.87
15694;BME280;7947;48.834;9.132;2022-07-18T10:12:03;98841.69;;;31.81;25.06
15694;BME280;7947;48.834;9.132;2022-07-18T10:15:08;98840.91;;;31.87;24.07
15694;BME280;7947;48.834;9.132;2022-07-18T10:18:13;98833.81;;;31.93;22.36
15694;BME280;7947;48.834;9.132;2022-07-18T10:21:20;98836.53;;;32.04;22.58
15694;BME280;7947;48.834;9.132;2022-07-18T10:24:25;98833.34;;;32.16;22.36
15694;BME280;7947;48.834;9.132;2022-07-18T10:27:47;98830.97;;;32.08;21.55
15694;BME280;7947;48.834;9.132;2022-07-18T10:30:51;98830.94;;;32.22;20.90
15694;BME280;7947;48.834;9.132;2022-07-18T10:34:09;98832.94;;;32.25;21.33
15694;BME280;7947;48.834;9.132;2022-07-18T10:37:14;98837.72;;;32.21;21.32
15694;BME280;7947;48.834;9.132;2022-07-18T10:40:22;98830.94;;;32.29;23.16
15694;BME280;7947;48.834;9.132;2022-07-18T10:47:06;98820.59;;;32.47;21.29
15694;BME280;7947;48.834;9.132;2022-07-18T10:50:10;98819.41;;;32.48;21.30
15694;BME280;7947;48.834;9.132;2022-07-18T10:53:14;98822.56;;;32.50;22.46
15694;BME280;7947;48.834;9.132;2022-07-18T10:56:17;98815.00;;;32.57;21.55
15694;BME280;7947;48.834;9.132;2022-07-18T10:59:21;98818.91;;;32.67;20.21
15694;BME280;7947;48.834;9.132;2022-07-18T11:02:34;98816.13;;;32.70;21.02
15694;BME280;7947;48.834;9.132;2022-07-18T11:05:43;98813.66;;;32.83;21.92
15694;BME280;7947;48.834;9.132;2022-07-18T11:08:47;98810.03;;;32.90;22.12
15694;BME280;7947;48.834;9.132;2022-07-18T11:12:18;98804.47;;;33.00;21.32
15694;BME280;7947;48.834;9.132;2022-07-18T11:15:21;98801.59;;;33.11;20.70
15694;BME280;7947;48.834;9.132;2022-07-18T11:18:24;98800.75;;;33.21;20.42
15694;BME280;7947;48.834;9.132;2022-07-18T11:21:29;98805.59;;;33.10;19.68
15694;BME280;7947;48.834;9.132;2022-07-18T11:24:40;98796.84;;;33.11;20.80
15694;BME280;7947;48.834;9.132;2022-07-18T11:27:43;98799.97;;;33.17;20.75
15694;BME280;7947;48.834;9.132;2022-07-18T11:30:58;98785.13;;;33.34;20.41
15694;BME280;7947;48.834;9.132;2022-07-18T11:34:02;98785.63;;;33.25;20.02
15694;BME280;7947;48.834;9.132;2022-07-18T11:37:05;98787.53;;;33.32;20.13
15694;BME280;7947;48.834;9.132;2022-07-18T11:40:10;98777.19;;;33.36;21.32
15694;BME280;7947;48.834;9.132;2022-07-18T11:43:19;98773.16;;;33.40;19.06
15694;BME280;7947;48.834;9.132;2022-07-18T11:46:23;98772.00;;;33.38;19.04
15694;BME280;7947;48.834;9.132;2022-07-18T11:49:27;98773.94;;;33.48;19.65
15694;BME280;7947;48.834;9.132;2022-07-18T11:52:30;98765.53;;;33.51;19.16
15694;BME280;7947;48.834;9.132;2022-07-18T11:55:37;98761.53;;;33.56;19.32
15694;BME280;7947;48.834;9.132;2022-07-18T11:58:42;98761.19;;;33.50;20.63
15694;BME280;7947;48.834;9.132;2022-07-18T12:01:45;98754.75;;;33.57;21.06
15694;BME280;7947;48.834;9.132;2022-07-18T12:04:54;98755.66;;;33.47;17.93
15694;BME280;7947;48.834;9.132;2022-07-18T12:07:57;98762.00;;;33.47;19.02
15694;BME280;7947;48.834;9.132;2022-07-18T12:11:10;98755.47;;;33.64;18.84
15694;BME280;7947;48.834;9.132;2022-07-18T12:14:14;98756.31;;;33.61;17.67
15694;BME280;7947;48.834;9.132;2022-07-18T12:17:17;98752.63;;;33.72;17.84
15694;BME280;7947;48.834;9.132;2022-07-18T12:20:21;98751.16;;;33.60;17.56
15694;BME280;7947;48.834;9.132;2022-07-18T12:23:27;98745.03;;;33.76;18.04
15694;BME280;7947;48.834;9.132;2022-07-18T12:26:32;98734.97;;;33.89;19.27
15694;BME280;7947;48.834;9.132;2022-07-18T12:30:10;98733.66;;;34.00;18.33
15694;BME280;7947;48.834;9.132;2022-07-18T12:33:14;98737.84;;;34.15;17.81
15694;BME280;7947;48.834;9.132;2022-07-18T12:36:16;98734.03;;;34.02;18.21
15694;BME280;7947;48.834;9.132;2022-07-18T12:39:30;98738.69;;;34.12;20.03
15694;BME280;7947;48.834;9.132;2022-07-18T12:42:35;98733.88;;;34.13;18.37
15694;BME280;7947;48.834;9.132;2022-07-18T12:45:39;98735.53;;;34.10;18.82
15694;BME280;7947;48.834;9.132;2022-07-18T12:48:42;98729.78;;;34.24;18.26
15694;BME280;7947;48.834;9.132;2022-07-18T12:51:45;98720.69;;;34.20;18.25
15694;BME280;7947;48.834;9.132;2022-07-18T12:54:48;98718.69;;;34.21;18.58
15694;BME280;7947;48.834;9.132;2022-07-18T12:57:53;98724.03;;;34.38;18.35
15694;BME280;7947;48.834;9.132;2022-07-18T13:00:56;98710.47;;;34.40;18.89
15694;BME280;7947;48.834;9.132;2022-07-18T13:04:07;98706.78;;;34.50;18.46
15694;BME280;7947;48.834;9.132;2022-07-18T13:07:10;98709.66;;;34.40;18.41
15694;BME280;7947;48.834;9.132;2022-07-18T13:10:13;98709.19;;;34.18;18.88
15694;BME280;7947;48.834;9.132;2022-07-18T13:13:17;98715.84;;;34.24;19.29
15694;BME280;7947;48.834;9.132;2022-07-18T13:16:20;98708.09;;;34.39;19.53
15694;BME280;7947;48.834;9.132;2022-07-18T13:19:23;98710.84;;;34.42;18.27
15694;BME280;7947;48.834;9.132;2022-07-18T13:22:26;98720.34;;;34.48;17.71
15694;BME280;7947;48.834;9.132;2022-07-18T13:25:29;98700.72;;;34.55;19.05
15694;BME280;7947;48.834;9.132;2022-07-18T13:28:36;98705.41;;;34.62;19.57
15694;BME280;7947;48.834;9.132;2022-07-18T13:31:38;98702.09;;;34.71;20.41
15694;BME280;7947;48.834;9.132;2022-07-18T13:34:41;98699.56;;;34.80;19.17
15694;BME280;7947;48.834;9.132;2022-07-18T13:37:44;98694.19;;;34.66;19.45
15694;BME280;7947;48.834;9.132;2022-07-18T13:40:47;98694.16;;;34.69;19.08
15694;BME280;7947;48.834;9.132;2022-07-18T13:43:51;98686.88;;;34.75;19.33
15694;BME280;7947;48.834;9.132;2022-07-18T13:46:54;98692.41;;;34.79;20.03
15694;BME280;7947;48.834;9.132;2022-07-18T13:49:57;98684.38;;;34.84;19.43
15694;BME280;7947;48.834;9.132;2022-07-18T13:53:00;98678.75;;;34.88;19.63
15694;BME280;7947;48.834;9.132;2022-07-18T13:56:03;98685.75;;;34.99;19.70
15694;BME280;7947;48.834;9.132;2022-07-18T13:59:08;98689.09;;;34.87;18.99
15694;BME280;7947;48.834;9.132;2022-07-18T14:02:10;98692.69;;;34.88;18.39
15694;BME280;7947;48.834;9.132;2022-07-18T14:05:13;98688.59;;;34.96;18.58
15694;BME280;7947;48.834;9.132;2022-07-18T14:08:16;98679.41;;;34.95;19.17
15694;BME280;7947;48.834;9.132;2022-07-18T14:11:19;98676.72;;;35.15;19.96
15694;BME280;7947;48.834;9.132;2022-07-18T14:14:23;98669.97;;;35.35;18.97
15694;BME280;7947;48.834;9.132;2022-07-18T14:17:27;98666.94;;;35.50;19.47
15694;BME280;7947;48.834;9.132;2022-07-18T14:20:30;98663.66;;;35.55;19.81
15694;BME280;7947;48.834;9.132;2022-07-18T14:23:33;98664.66;;;35.64;18.01
15694;BME280;7947;48.834;9.132;2022-07-18T14:26:36;98657.22;;;35.58;18.94
15694;BME280;7947;48.834;9.132;2022-07-18T14:29:40;98663.94;;;35.60;19.14
15694;BME280;7947;48.834;9.132;2022-07-18T14:32:43;98657.59;;;35.60;18.84
15694;BME280;7947;48.834;9.132;2022-07-18T14:35:46;98650.63;;;35.48;19.04
15694;BME280;7947;48.834;9.132;2022-07-18T14:38:49;98654.91;;;35.53;19.19
15694;BME280;7947;48.834;9.132;2022-07-18T14:41:52;98652.91;;;35.53;19.05
15694;BME280;7947;48.834;9.132;2022-07-18T14:44:56;98656.16;;;35.52;18.81
15694;BME280;7947;48.834;9.132;2022-07-18T14:47:58;98650.50;;;35.55;18.83
15694;BME280;7947;48.834;9.132;2022-07-18T14:51:01;98651.06;;;35.66;19.43
15694;BME280;7947;48.834;9.132;2022-07-18T14:54:05;98647.00;;;35.71;18.98
15694;BME280;7947;48.834;9.132;2022-07-18T14:57:10;98648.69;;;35.65;18.73
15694;BME280;7947;48.834;9.132;2022-07-18T15:00:16;98646.63;;;35.69;17.75
15694;BME280;7947;48.834;9.132;2022-07-18T15:03:18;98649.00;;;35.70;18.68
15694;BME280;7947;48.834;9.132;2022-07-18T15:06:42;98644.03;;;35.78;18.38
15694;BME280;7947;48.834;9.132;2022-07-18T15:09:45;98642.47;;;35.77;18.23
15694;BME280;7947;48.834;9.132;2022-07-18T15:12:50;98634.03;;;35.61;17.09
15694;BME280;7947;48.834;9.132;2022-07-18T15:15:55;98635.75;;;35.55;18.23
15694;BME280;7947;48.834;9.132;2022-07-18T15:18:57;98632.31;;;35.67;18.78
15694;BME280;7947;48.834;9.132;2022-07-18T15:22:00;98628.66;;;35.70;17.61
15694;BME280;7947;48.834;9.132;2022-07-18T15:25:03;98628.28;;;35.68;19.09
15694;BME280;7947;48.834;9.132;2022-07-18T15:28:06;98624.88;;;35.60;18.06
15694;BME280;7947;48.834;9.132;2022-07-18T15:31:11;98624.22;;;35.53;19.07
15694;BME280;7947;48.834;9.132;2022-07-18T15:34:13;98622.38;;;35.42;18.09
15694;BME280;7947;48.834;9.132;2022-07-18T15:37:16;98617.78;;;35.13;17.76
15694;BME280;7947;48.834;9.132;2022-07-18T15:40:19;98615.66;;;35.20;18.95
15694;BME280;7947;48.834;9.132;2022-07-18T15:43:23;98612.00;;;35.23;19.35
15694;BME280;7947;48.834;9.132;2022-07-18T15:46:27;98609.78;;;35.15;18.48
15694;BME280;7947;48.834;9.132;2022-07-18T15:49:30;98606.31;;;34.84;18.06
15694;BME280;7947;48.834;9.132;2022-07-18T15:52:33;98598.41;;;34.79;19.34
15694;BME280;7947;48.834;9.132;2022-07-18T15:55:38;98594.13;;;34.75;19.02
15694;BME280;7947;48.834;9.132;2022-07-18T15:58:41;98598.63;;;34.69;19.37
15694;BME280;7947;48.834;9.132;2022-07-18T16:01:45;98587.69;;;34.54;18.61
15694;BME280;7947;48.834;9.132;2022-07-18T16:04:49;98588.38;;;34.35;18.99
15694;BME280;7947;48.834;9.132;2022-07-18T16:07:52;98584.53;;;34.26;19.70
15694;BME280;7947;48.834;9.132;2022-07-18T16:10:54;98586.53;;;34.25;20.00
15694;BME280;7947;48.834;9.132;2022-07-18T16:13:58;98586.53;;;34.25;19.75
15694;BME280;7947;48.834;9.132;2022-07-18T16:17:03;98571.94;;;34.18;19.63
15694;BME280;7947;48.834;9.132;2022-07-18T16:20:07;98574.47;;;34.09;20.03
15694;BME280;7947;48.834;9.132;2022-07-18T16:23:10;98578.84;;;34.06;20.05
15694;BME280;7947;48.834;9.132;2022-07-18T16:26:12;98576.53;;;34.01;19.49
15694;BME280;7947;48.834;9.132;2022-07-18T16:29:15;98573.44;;;33.92;19.42
15694;BME280;7947;48.834;9.132;2022-07-18T16:32:19;98568.38;;;33.87;19.87
15694;BME280;7947;48.834;9.132;2022-07-18T16:35:22;98562.50;;;33.78;19.34
15694;BME280;7947;48.834;9.132;2022-07-18T16:38:25;98564.31;;;33.61;19.94